Архив погоды в Сергаче

Метеограмма Сергач
Понедельник, 17 Июня
Время местн. Темп Ветер Видим Явления Облачность нижн/средн/верх Атм. давл. Влжн Точка росы ВНГО R Сост. почвы Tg s
Напр Скр Прв ур.ст ур.м изм
03:00 +8.1° З 1 2 20 км - ясно 749 760 +0.4 90% +6.5° более 2.5 км - - - -
00:00 +10.7° З 1 2 20 км - ясно 749 760 +0.4 80% +7.4° более 2.5 км - - - -
Воскресенье, 16 Июня
Время местн. Темп Ветер Видим Явления Облачность нижн/средн/верх Атм. давл. Влжн Точка росы ВНГО R Сост. почвы Tg s
Напр Скр Прв ур.ст ур.м изм
21:00 +14.6° С-З 2 3 20 км - переменная облачность 748 759 +0.5 65% +8° 1 км - - - -
18:00 +21.7° С-З 4 8 20 км - облачно с прояснениями 748 759 -0.2 36% +5.8° 1 км - - - -
15:00 +20.3° С-З 3 6 20 км - облачно с прояснениями 748 759 -0.2 42% +7° 1 км - - - -
12:00 +21° З 3 5 20 км - переменная облачность 748 759 -0.5 44% +8.2° 1 км - - - -
09:00 +17.8° С-З 1 3 20 км - переменная облачность 749 760 0 54% +8.5° 1 км - - - -
06:00 +10.6° З 1 2 20 км - ясно 749 760 +0.2 87% +8.5° более 2.5 км - Сухая (без трещин) - -
03:00 +10° З 1 1 20 км - переменная облачность 749 760 -0.6 83% +7.3° более 2.5 км - - - -
00:00 +12.2° З,С-З 1 2 20 км - преимущественно облачно 749 760 -0.2 76% +8.1° - - - - -
Суббота, 15 Июня
Время местн. Темп Ветер Видим Явления Облачность нижн/средн/верх Атм. давл. Влжн Точка росы ВНГО R Сост. почвы Tg s
Напр Скр Прв ур.ст ур.м изм
21:00 +13.4° С-З 2 2 20 км - облачно с прояснениями 749 761 +0.2 72% +8.4° - - - - -
18:00 +17.9° З 2 3 20 км - переменная облачность 749 760 -1.2 44% +5.6° 1 км - - - -
15:00 +17.7° З 1 3 20 км - облачно с прояснениями 750 761 -0.8 46% +6.1° 1 км - - - -
12:00 +18° В 1 3 20 км - облачно с прояснениями 751 762 -0.2 47% +6.5° 1.5 км - - - -
09:00 +14.3° В 1 3 20 км - переменная облачность 751 762 -0.1 66% +8.1° 1.5 км - - - -
06:00 +8.1° С,С-В 2 4 20 км - переменная облачность 751 763 +0.8 93% +7° 1 км - Влажная (без луж) - -
03:00 +7.3° С-В 2 5 20 км - облачно 751 762 -0.5 94% +6.4° 1 км - - - -
00:00 +9.4° С,С-В 1 1 20 км - облачно 751 762 +0.2 93% +8.4° 1 км - - - -
Пятница, 14 Июня
Время местн. Темп Ветер Видим Явления Облачность нижн/средн/верх Атм. давл. Влжн Точка росы ВНГО R Сост. почвы Tg s
Напр Скр Прв ур.ст ур.м изм
21:00 +9.7° Ю-В 1 2 20 км небо без изменений {дождь} облачно 751 762 -1.2 95% +8.9° 1 км - - - -
18:00 +10.3° В 2 4 4 км слабый непрерывный дождь облачно 752 763 -0.5 92% +9° 600 м - - - -
15:00 +15.6° штиль 0 0 20 км - облачно 753 764 -2.1 49% +4.8° 1 км - - - -
12:00 +16.5° С-З 3 7 20 км - облачно 755 766 -1.1 43% +3.8° 1 км - - - -
09:00 +16.1° З 2 4 20 км - облачно 756 767 -1.1 48% +5.1° 1 км - - - -
06:00 +8.2° Ю-З 1 1 20 км - облачно с прояснениями 757 768 -0.8 76% +4.3° - - Сухая (без трещин) - -
03:00 +4.7° З 1 2 20 км - переменная облачность 758 769 +0.3 87% +2.7° более 2.5 км - - - -
00:00 +9.1° С 1 2 20 км - ясно 757 769 +0.1 66% +3° более 2.5 км - - - -